Terminal Aerodrome Forecast
Issued by NWS

Home | Current Version | Previous Version | Text Only | Print | Product List | Glossary On
Versions: 1 2 3 4 5 6 7 8 9 10 11 12 13 14 15 16 17 18
640
FTUS41 KBTV 290531
TAFMPV
TAF
KMPV 290531Z 2906/3006 00000KT P6SM OVC028
     FM291000 32005KT P6SM VCSH OVC020
     FM291800 33010G18KT P6SM OVC025
     FM292100 33012G20KT P6SM OVC035
     FM292300 33008G17KT P6SM OVC045=

USA.gov is the U.S. government's official web portal to all federal, state and local government web resources and services.